Time;durP1;ratioP1;P1;durP2;ratioP2;P2;SDS_P1;SDS_P2;PMS_P1;PMS_P2;Temp;Humidity;BMP_temperature;BMP_pressure;BME280_temperature;BME280_humidity;BME280_pressure;Samples;Min_cycle;Max_cycle;Signal;HPM_P1;HPM_P2
2021/04/06 00:01:39;;;;;;;1.80;1.40;;;-0.70;99.90;;;;;;4848128;29;20416;-81
2021/04/06 00:04:06;;;;;;;2.50;1.50;;;-0.70;99.90;;;;;;4811689;29;20408;-84
2021/04/06 00:06:33;;;;;;;3.58;1.40;;;-0.70;99.90;;;;;;4837639;29;20424;-79
2021/04/06 00:08:59;;;;;;;2.30;1.30;;;-0.70;99.90;;;;;;4821028;29;20406;-76
2021/04/06 00:11:26;;;;;;;1.90;1.43;;;-0.60;99.90;;;;;;4826459;29;20432;-79
2021/04/06 00:13:52;;;;;;;1.30;1.20;;;-0.70;99.90;;;;;;4839320;29;20411;-76
2021/04/06 00:16:17;;;;;;;1.67;1.50;;;-0.70;99.90;;;;;;4821324;29;20416;-78
2021/04/06 00:18:43;;;;;;;4.73;1.60;;;-0.60;99.90;;;;;;4835451;29;20409;-83
2021/04/06 00:21:09;;;;;;;1.38;1.30;;;-0.60;99.90;;;;;;4845419;29;20465;-79
2021/04/06 00:23:34;;;;;;;2.50;1.20;;;-0.60;99.90;;;;;;4817401;29;20471;-82
2021/04/06 00:26:00;;;;;;;1.37;1.27;;;-0.70;99.90;;;;;;4842666;29;20831;-83
2021/04/06 00:28:27;;;;;;;1.85;1.50;;;-0.60;99.90;;;;;;4820958;29;20470;-84
2021/04/06 00:30:54;;;;;;;2.28;1.50;;;-0.70;99.90;;;;;;4853162;29;20486;-76
2021/04/06 00:33:27;;;;;;;3.22;1.40;;;-0.70;99.90;;;;;;4858042;29;20422;-76
2021/04/06 00:35:56;;;;;;;1.97;1.20;;;-0.70;99.90;;;;;;4857137;29;20428;-76
2021/04/06 00:38:22;;;;;;;1.88;1.40;;;-0.70;99.90;;;;;;4832247;29;20474;-76
2021/04/06 00:40:50;;;;;;;1.42;1.20;;;-0.70;99.90;;;;;;4839147;29;20433;-76
2021/04/06 00:43:16;;;;;;;2.55;1.30;;;-0.80;99.90;;;;;;4848615;29;20527;-74
2021/04/06 00:45:43;;;;;;;1.70;1.20;;;-0.80;99.90;;;;;;4836469;29;20419;-78
2021/04/06 00:48:10;;;;;;;1.25;1.15;;;-0.80;99.90;;;;;;4838105;29;20453;-76
2021/04/06 00:50:37;;;;;;;1.67;1.10;;;-0.80;99.90;;;;;;4809992;29;20428;-78
2021/04/06 00:53:08;;;;;;;1.80;1.35;;;-0.90;99.90;;;;;;4819369;29;20419;-79
2021/04/06 00:55:38;;;;;;;2.75;1.38;;;-0.80;99.90;;;;;;4848551;29;20439;-83
2021/04/06 00:58:08;;;;;;;2.25;1.50;;;-0.90;99.90;;;;;;4808702;29;20488;-86
2021/04/06 01:00:34;;;;;;;2.40;1.40;;;-0.90;99.90;;;;;;4814034;29;20424;-79
2021/04/06 01:03:07;;;;;;;1.90;1.20;;;-0.90;99.90;;;;;;4835999;29;20465;-81
2021/04/06 01:05:35;;;;;;;1.60;1.30;;;-0.90;99.90;;;;;;4834892;29;20531;-84
2021/04/06 01:08:04;;;;;;;2.05;1.30;;;-1.00;99.90;;;;;;4816700;29;20416;-82
2021/04/06 01:10:31;;;;;;;1.45;1.35;;;-1.00;99.90;;;;;;4817385;29;20435;-80
2021/04/06 01:12:57;;;;;;;2.23;1.37;;;-1.00;99.90;;;;;;4842696;29;20408;-83
2021/04/06 01:15:24;;;;;;;1.50;1.20;;;-1.00;99.90;;;;;;4819824;29;20476;-83
2021/04/06 01:17:49;;;;;;;1.67;1.58;;;-1.00;99.90;;;;;;4830032;29;20482;-86
2021/04/06 01:20:18;;;;;;;3.22;1.42;;;-1.00;99.90;;;;;;4845685;29;20515;-82
2021/04/06 01:22:46;;;;;;;2.83;1.67;;;-1.00;99.90;;;;;;4836364;29;20445;-86
2021/04/06 01:25:22;;;;;;;1.23;1.13;;;-1.00;99.90;;;;;;4832969;29;20412;-82
2021/04/06 01:27:48;;;;;;;1.60;1.50;;;-1.00;99.90;;;;;;4832615;29;20916;-84
2021/04/06 01:30:16;;;;;;;1.48;1.27;;;-1.10;99.90;;;;;;4831249;29;20424;-87
2021/04/06 01:32:42;;;;;;;1.50;1.30;;;-1.00;99.90;;;;;;4846143;29;20489;-80
2021/04/06 01:35:09;;;;;;;2.13;1.42;;;-1.10;99.90;;;;;;4828052;29;20420;-81
2021/04/06 01:37:34;;;;;;;1.80;1.40;;;-1.00;99.90;;;;;;4846438;29;20415;-85
2021/04/06 01:40:02;;;;;;;1.95;1.35;;;-1.10;99.90;;;;;;4835521;29;20432;-82
2021/04/06 01:42:33;;;;;;;1.40;1.30;;;-1.00;99.90;;;;;;4832232;29;20395;-82
2021/04/06 01:45:01;;;;;;;3.65;1.52;;;-1.10;99.90;;;;;;4819249;29;20422;-90
2021/04/06 01:47:27;;;;;;;1.67;1.40;;;-1.10;99.90;;;;;;4827228;29;20457;-86
2021/04/06 01:49:53;;;;;;;1.63;1.13;;;-1.00;99.90;;;;;;4833344;29;20457;-87
2021/04/06 01:52:18;;;;;;;2.97;1.30;;;-1.00;99.90;;;;;;4845525;29;20451;-83
2021/04/06 01:54:51;;;;;;;2.27;1.50;;;-1.00;99.90;;;;;;4817642;29;20505;-82
2021/04/06 01:57:25;;;;;;;1.70;1.40;;;-1.00;99.90;;;;;;4828908;29;20419;-85
2021/04/06 02:00:01;;;;;;;2.53;1.40;;;-1.00;99.90;;;;;;4844808;29;20777;-80
2021/04/06 02:02:30;;;;;;;1.30;1.15;;;-1.10;99.90;;;;;;4843779;29;20507;-78
2021/04/06 02:05:00;;;;;;;1.30;1.20;;;-1.00;99.90;;;;;;4823814;29;20415;-88
2021/04/06 02:07:30;;;;;;;1.25;1.15;;;-1.00;99.90;;;;;;4821455;29;20446;-85
2021/04/06 02:09:56;;;;;;;4.40;1.30;;;-1.10;99.90;;;;;;4844303;29;20445;-87
2021/04/06 02:12:24;;;;;;;2.20;1.45;;;-1.00;99.90;;;;;;4841497;29;20879;-77
2021/04/06 02:14:58;;;;;;;1.85;1.50;;;-1.00;99.90;;;;;;4817415;29;20441;-83
2021/04/06 02:17:24;;;;;;;1.30;1.20;;;-1.00;99.90;;;;;;4829687;29;20420;-88
2021/04/06 02:19:49;;;;;;;1.50;1.40;;;-1.00;99.90;;;;;;4838470;29;20452;-82
2021/04/06 02:22:17;;;;;;;2.22;1.40;;;-1.00;99.90;;;;;;4841192;29;20442;-83
2021/04/06 02:25:05;;;;;;;1.40;1.30;;;-1.00;99.90;;;;;;4848789;29;20408;-90
2021/04/06 02:27:32;;;;;;;1.10;1.00;;;-1.00;99.90;;;;;;4836833;29;20547;-81
2021/04/06 02:29:59;;;;;;;1.50;1.40;;;-1.00;99.90;;;;;;4816590;29;20441;-87
2021/04/06 02:32:26;;;;;;;1.50;1.27;;;-1.00;99.90;;;;;;4827789;29;20414;-80
2021/04/06 02:34:53;;;;;;;1.35;1.25;;;-1.00;99.90;;;;;;4840889;29;20974;-80
2021/04/06 02:37:21;;;;;;;1.50;1.30;;;-1.00;99.90;;;;;;4823007;29;20403;-81
2021/04/06 02:39:50;;;;;;;2.15;1.30;;;-1.00;99.90;;;;;;4807954;29;20423;-83
2021/04/06 02:42:51;;;;;;;1.67;1.27;;;-1.00;99.90;;;;;;4844793;29;20418;-82
2021/04/06 02:45:29;;;;;;;3.20;1.40;;;-1.00;99.90;;;;;;4852303;29;20450;-85
2021/04/06 02:48:06;;;;;;;2.25;1.20;;;-1.00;99.90;;;;;;4828225;29;20451;-81
2021/04/06 02:50:32;;;;;;;2.05;1.35;;;-1.00;99.90;;;;;;4841024;29;20454;-86
2021/04/06 02:52:58;;;;;;;2.83;1.40;;;-1.10;99.90;;;;;;4856750;29;20477;-83
2021/04/06 02:55:24;;;;;;;1.98;1.52;;;-1.10;99.90;;;;;;4817242;29;20473;-81
2021/04/06 02:57:51;;;;;;;1.30;1.20;;;-1.10;99.90;;;;;;4851743;29;20844;-82
2021/04/06 03:00:30;;;;;;;2.70;1.33;;;-1.10;99.90;;;;;;4829674;29;20453;-84
2021/04/06 03:03:00;;;;;;;1.88;1.20;;;-1.10;99.90;;;;;;4834857;29;20407;-81
2021/04/06 03:05:27;;;;;;;2.97;1.23;;;-1.10;99.90;;;;;;4824717;29;20445;-85
2021/04/06 03:07:53;;;;;;;2.08;1.50;;;-1.10;99.90;;;;;;4838922;29;20426;-87
2021/04/06 03:10:19;;;;;;;2.05;1.40;;;-1.10;99.90;;;;;;4829933;29;20435;-86
2021/04/06 03:12:48;;;;;;;1.73;1.30;;;-1.00;99.90;;;;;;4825536;29;20409;-84
2021/04/06 03:15:36;;;;;;;1.83;1.38;;;-1.10;99.90;;;;;;4838501;29;20406;-85
2021/04/06 03:18:04;;;;;;;2.30;1.48;;;-1.10;99.90;;;;;;4839899;29;20818;-84
2021/04/06 03:20:29;;;;;;;1.50;1.40;;;-1.10;99.90;;;;;;4840109;29;20473;-83
2021/04/06 03:22:55;;;;;;;1.23;1.13;;;-1.10;99.90;;;;;;4839214;29;20832;-85
2021/04/06 03:25:21;;;;;;;1.40;1.23;;;-1.10;99.90;;;;;;4838515;29;21073;-88
2021/04/06 03:27:51;;;;;;;1.20;1.17;;;-1.10;99.90;;;;;;4812154;29;20421;-88
2021/04/06 03:30:32;;;;;;;1.50;1.20;;;-1.10;99.90;;;;;;4839480;29;20482;-85
2021/04/06 03:33:08;;;;;;;1.23;1.20;;;-0.90;99.90;;;;;;4835919;29;20430;-84
2021/04/06 03:35:35;;;;;;;1.57;1.30;;;-1.00;99.90;;;;;;4806748;29;20957;-83
2021/04/06 03:38:02;;;;;;;1.45;1.30;;;-1.10;99.90;;;;;;4845134;29;20427;-82
2021/04/06 03:40:31;;;;;;;1.10;1.10;;;-1.00;99.90;;;;;;4833732;29;20507;-81
2021/04/06 03:43:19;;;;;;;2.80;1.60;;;-1.10;99.90;;;;;;4825408;29;20471;-79
2021/04/06 03:45:58;;;;;;;1.50;1.27;;;-1.10;99.90;;;;;;4843896;29;20415;-85
2021/04/06 03:48:27;;;;;;;1.98;1.40;;;-1.10;99.90;;;;;;4840025;29;20980;-86
2021/04/06 03:50:53;;;;;;;1.75;1.65;;;-1.00;99.90;;;;;;4836816;29;20457;-89
2021/04/06 03:53:23;;;;;;;1.20;1.10;;;-1.10;99.90;;;;;;4842510;29;20503;-82
2021/04/06 03:56:03;;;;;;;1.77;1.35;;;-1.10;99.90;;;;;;4836218;29;20424;-81
2021/04/06 03:58:32;;;;;;;1.40;1.30;;;-1.10;99.90;;;;;;4827029;29;20395;-89
2021/04/06 04:00:58;;;;;;;1.33;1.23;;;-1.10;99.90;;;;;;4834746;29;20515;-87
2021/04/06 04:03:23;;;;;;;1.50;1.40;;;-1.10;99.90;;;;;;4829494;29;20493;-86
2021/04/06 04:05:50;;;;;;;1.80;1.40;;;-1.10;99.90;;;;;;4816848;29;20398;-85
2021/04/06 04:08:15;;;;;;;1.67;1.57;;;-1.10;99.90;;;;;;4817935;29;20406;-77
2021/04/06 04:10:41;;;;;;;1.33;1.23;;;-1.00;99.90;;;;;;4824282;29;20421;-89
2021/04/06 04:13:07;;;;;;;2.30;1.40;;;-1.10;99.90;;;;;;4839021;29;20403;-82
2021/04/06 04:15:32;;;;;;;1.40;1.30;;;-1.20;99.90;;;;;;4817172;29;20417;-87
2021/04/06 04:17:58;;;;;;;2.95;1.40;;;-1.20;99.90;;;;;;4832936;29;20474;-83
2021/04/06 04:20:24;;;;;;;2.47;1.50;;;-1.20;99.90;;;;;;4824977;29;20443;-86
2021/04/06 04:22:50;;;;;;;1.90;1.20;;;-1.20;99.90;;;;;;4849565;29;20672;-87
2021/04/06 04:25:16;;;;;;;2.00;1.30;;;-1.20;99.90;;;;;;4821799;29;20500;-86
2021/04/06 04:27:42;;;;;;;1.23;1.15;;;-1.30;99.90;;;;;;4842696;29;20402;-82
2021/04/06 04:30:09;;;;;;;3.63;1.63;;;-1.30;99.90;;;;;;4844005;29;21100;-82
2021/04/06 04:32:34;;;;;;;1.92;1.58;;;-1.30;99.90;;;;;;4834602;29;20414;-83
2021/04/06 04:35:00;;;;;;;3.75;1.58;;;-1.30;99.90;;;;;;4840934;29;20408;-82
2021/04/06 04:37:26;;;;;;;1.55;1.30;;;-1.30;99.90;;;;;;4809858;29;21049;-84
2021/04/06 04:39:51;;;;;;;3.43;1.57;;;-1.30;99.90;;;;;;4848367;29;20418;-84
2021/04/06 04:42:17;;;;;;;1.67;1.40;;;-1.40;99.90;;;;;;4836732;29;20493;-81
2021/04/06 04:44:43;;;;;;;2.15;1.42;;;-1.30;99.90;;;;;;4834713;29;20441;-78
2021/04/06 04:47:08;;;;;;;1.50;1.40;;;-1.40;99.90;;;;;;4819701;29;20774;-79
2021/04/06 04:49:34;;;;;;;1.43;1.20;;;-1.40;99.90;;;;;;4836117;29;20417;-83
2021/04/06 04:51:59;;;;;;;2.50;1.40;;;-1.40;99.90;;;;;;4841078;29;20683;-81
2021/04/06 04:54:26;;;;;;;1.60;1.40;;;-1.40;99.90;;;;;;4817549;29;20414;-83
2021/04/06 04:56:52;;;;;;;1.33;1.20;;;-1.40;99.90;;;;;;4830227;29;20415;-86
2021/04/06 04:59:18;;;;;;;1.73;1.30;;;-1.40;99.90;;;;;;4841097;29;20411;-80
2021/04/06 05:01:43;;;;;;;1.40;1.20;;;-1.40;99.90;;;;;;4848376;29;20592;-83
2021/04/06 05:04:10;;;;;;;1.58;1.38;;;-1.40;99.90;;;;;;4811832;29;20424;-81
2021/04/06 05:06:36;;;;;;;1.40;1.30;;;-1.40;99.90;;;;;;4817447;29;20422;-86
2021/04/06 05:09:05;;;;;;;1.50;1.40;;;-1.40;99.90;;;;;;4835487;29;20412;-82
2021/04/06 05:11:30;;;;;;;3.00;1.63;;;-1.30;99.90;;;;;;4838359;29;20430;-82
2021/04/06 05:13:56;;;;;;;1.30;1.20;;;-1.30;99.90;;;;;;4844850;29;20479;-78
2021/04/06 05:16:22;;;;;;;1.60;1.15;;;-1.30;99.90;;;;;;4817897;29;20512;-78
2021/04/06 05:18:48;;;;;;;1.70;1.35;;;-1.30;99.90;;;;;;4832656;29;20404;-78
2021/04/06 05:21:13;;;;;;;2.70;1.38;;;-1.20;99.90;;;;;;4816752;29;20423;-80
2021/04/06 05:23:39;;;;;;;1.87;1.60;;;-1.20;99.90;;;;;;4829517;29;20406;-86
2021/04/06 05:26:05;;;;;;;1.73;1.30;;;-1.20;99.90;;;;;;4844905;29;20485;-84
2021/04/06 05:28:30;;;;;;;2.55;1.50;;;-1.10;99.90;;;;;;4844519;29;20924;-87
2021/04/06 05:30:57;;;;;;;1.42;1.30;;;-1.10;99.90;;;;;;4831286;29;20418;-90
2021/04/06 05:33:23;;;;;;;1.70;1.60;;;-1.00;99.90;;;;;;4843302;29;20932;-83
2021/04/06 05:35:50;;;;;;;1.45;1.35;;;-1.00;99.90;;;;;;4832473;29;20406;-86
2021/04/06 05:38:15;;;;;;;1.63;1.40;;;-0.90;99.90;;;;;;4832098;29;20416;-82
2021/04/06 05:40:41;;;;;;;2.90;1.50;;;-0.90;99.90;;;;;;4831035;29;20633;-83
2021/04/06 05:43:07;;;;;;;1.70;1.58;;;-0.80;99.90;;;;;;4837031;29;20418;-77
2021/04/06 05:45:33;;;;;;;3.83;1.80;;;-0.80;99.90;;;;;;4851802;29;20433;-83
2021/04/06 05:47:59;;;;;;;1.47;1.37;;;-0.70;99.90;;;;;;4816691;29;20514;-79
2021/04/06 05:50:25;;;;;;;2.35;1.60;;;-0.70;99.90;;;;;;4821983;29;20431;-78
2021/04/06 05:52:50;;;;;;;1.70;1.33;;;-0.60;99.90;;;;;;4832967;29;20454;-77
2021/04/06 05:55:16;;;;;;;2.53;1.80;;;-0.50;99.90;;;;;;4845249;29;20887;-76
2021/04/06 05:57:42;;;;;;;2.28;1.67;;;-0.50;99.90;;;;;;4851714;29;21244;-75
2021/04/06 06:00:08;;;;;;;3.60;1.60;;;-0.40;99.90;;;;;;4820273;29;20431;-77
2021/04/06 06:02:37;;;;;;;2.20;1.70;;;-0.40;99.90;;;;;;4849311;29;20462;-78
2021/04/06 06:05:05;;;;;;;2.10;1.70;;;-0.30;99.90;;;;;;4830416;29;20420;-76
2021/04/06 06:07:31;;;;;;;3.72;1.90;;;-0.20;99.90;;;;;;4845779;29;20418;-79
2021/04/06 06:09:56;;;;;;;1.88;1.73;;;-0.10;99.90;;;;;;4837795;29;20405;-81
2021/04/06 06:12:22;;;;;;;2.13;1.67;;;-0.20;99.90;;;;;;4842252;29;20417;-79
2021/04/06 06:14:51;;;;;;;1.60;1.50;;;-0.10;99.90;;;;;;4830110;29;20408;-77
2021/04/06 06:17:20;;;;;;;2.78;1.70;;;-0.10;99.90;;;;;;4846373;29;20425;-79
2021/04/06 06:19:53;;;;;;;2.35;1.92;;;-0.10;99.90;;;;;;4845956;29;21138;-78
2021/04/06 06:22:22;;;;;;;1.98;1.70;;;0.00;99.90;;;;;;4839637;29;20805;-78
2021/04/06 06:24:49;;;;;;;1.90;1.70;;;0.00;99.90;;;;;;4818028;29;20396;-78
2021/04/06 06:30:23;;;;;;;2.17;1.58;;;0.20;99.90;;;;;;4838447;29;20892;-78
2021/04/06 06:32:54;;;;;;;1.83;1.53;;;0.40;99.90;;;;;;4830026;29;20416;-79
2021/04/06 06:35:35;;;;;;;1.65;1.55;;;0.50;99.90;;;;;;4839534;29;20437;-79
2021/04/06 06:38:14;;;;;;;1.90;1.70;;;0.60;99.90;;;;;;4816816;29;20400;-78
2021/04/06 06:40:41;;;;;;;1.92;1.75;;;0.70;99.90;;;;;;4837305;29;20426;-81
2021/04/06 06:43:15;;;;;;;2.30;1.60;;;0.70;99.90;;;;;;4841401;29;20403;-79
2021/04/06 06:45:41;;;;;;;2.15;1.70;;;0.70;99.90;;;;;;4818962;29;20928;-78
2021/04/06 06:48:08;;;;;;;1.75;1.65;;;0.70;99.90;;;;;;4833144;29;20443;-79
2021/04/06 06:50:49;;;;;;;1.77;1.67;;;0.70;99.90;;;;;;4839380;29;20528;-79
2021/04/06 06:53:14;;;;;;;2.67;2.08;;;0.90;99.90;;;;;;4840114;29;20467;-78
2021/04/06 06:55:40;;;;;;;2.00;1.80;;;0.90;99.90;;;;;;4808997;29;20420;-78
2021/04/06 06:58:06;;;;;;;2.38;2.00;;;0.90;99.90;;;;;;4832730;29;20417;-78
2021/04/06 07:00:32;;;;;;;2.95;2.00;;;0.90;99.90;;;;;;4849869;29;20418;-77
2021/04/06 07:02:57;;;;;;;1.90;1.80;;;0.90;99.90;;;;;;4826207;29;20400;-78
2021/04/06 07:05:25;;;;;;;2.40;2.20;;;0.90;99.90;;;;;;4838146;29;20490;-77
2021/04/06 07:08:04;;;;;;;2.88;2.08;;;1.00;99.90;;;;;;4838954;29;20498;-78
2021/04/06 07:10:35;;;;;;;2.80;2.60;;;1.10;99.90;;;;;;4833923;29;20526;-78
2021/04/06 07:13:20;;;;;;;1.88;1.77;;;1.10;99.90;;;;;;4818054;29;20472;-77
2021/04/06 07:15:47;;;;;;;2.30;2.10;;;1.20;99.90;;;;;;4818802;29;20410;-78
2021/04/06 07:18:15;;;;;;;2.15;2.05;;;1.20;99.90;;;;;;4838724;29;20408;-77
2021/04/06 07:21:01;;;;;;;2.75;2.10;;;1.20;99.90;;;;;;4823971;29;21036;-79
2021/04/06 07:23:34;;;;;;;2.28;2.08;;;1.30;99.90;;;;;;4849055;29;20408;-78
2021/04/06 07:26:05;;;;;;;2.80;2.30;;;1.40;99.90;;;;;;4819209;29;20410;-79
2021/04/06 07:28:31;;;;;;;2.83;2.53;;;1.50;99.90;;;;;;4840314;29;20904;-79
2021/04/06 07:30:58;;;;;;;3.03;2.43;;;1.50;99.90;;;;;;4811939;29;20438;-78
2021/04/06 07:33:24;;;;;;;2.35;2.15;;;1.60;99.90;;;;;;4844406;29;20415;-79
2021/04/06 07:35:50;;;;;;;3.03;2.55;;;1.50;99.90;;;;;;4808748;29;20404;-77
2021/04/06 07:38:19;;;;;;;3.08;2.38;;;1.60;99.90;;;;;;4839413;29;20471;-79
2021/04/06 07:40:45;;;;;;;2.95;2.45;;;1.80;99.90;;;;;;4850956;29;20408;-78
2021/04/06 07:43:10;;;;;;;2.70;2.50;;;1.90;99.90;;;;;;4840863;29;20408;-78
2021/04/06 07:45:37;;;;;;;2.30;2.17;;;2.10;99.90;;;;;;4845891;29;20412;-78
2021/04/06 07:48:04;;;;;;;3.15;2.35;;;2.30;99.90;;;;;;4849760;29;20406;-78
2021/04/06 07:50:44;;;;;;;2.28;2.13;;;2.50;99.90;;;;;;4846160;29;20436;-79
2021/04/06 07:53:30;;;;;;;2.20;2.00;;;2.30;99.90;;;;;;4838387;29;20631;-77
2021/04/06 07:56:00;;;;;;;7.60;2.80;;;2.10;99.90;;;;;;4847612;29;20399;-77
2021/04/06 07:58:46;;;;;;;3.33;2.25;;;2.10;99.90;;;;;;4847080;29;20426;-78
2021/04/06 08:01:27;;;;;;;2.75;2.25;;;2.30;99.90;;;;;;4827437;29;20449;-77
2021/04/06 08:03:53;;;;;;;2.60;2.40;;;2.30;99.90;;;;;;4851097;29;21135;-77
2021/04/06 08:06:45;;;;;;;2.30;2.10;;;2.50;99.90;;;;;;4865173;29;20403;-78
2021/04/06 08:09:32;;;;;;;2.42;2.22;;;2.60;99.90;;;;;;4819066;29;20965;-76
2021/04/06 08:12:17;;;;;;;3.30;2.40;;;2.80;99.90;;;;;;4846461;29;20431;-76
2021/04/06 08:14:44;;;;;;;2.95;2.28;;;2.80;99.90;;;;;;4839815;29;20410;-76
2021/04/06 08:17:25;;;;;;;2.50;2.30;;;2.90;99.90;;;;;;4844268;29;20416;-76
2021/04/06 08:19:53;;;;;;;2.25;2.05;;;2.90;99.90;;;;;;4846813;29;20444;-75
2021/04/06 08:22:26;;;;;;;3.25;2.05;;;2.80;99.90;;;;;;4847080;29;20424;-78
2021/04/06 08:24:52;;;;;;;2.40;2.17;;;2.60;99.90;;;;;;4826297;29;20494;-77
2021/04/06 08:27:34;;;;;;;2.50;2.30;;;2.60;99.90;;;;;;4822916;29;20787;-77
2021/04/06 08:30:15;;;;;;;2.92;2.35;;;2.60;99.90;;;;;;4847769;29;20542;-77
2021/04/06 08:32:58;;;;;;;2.50;2.30;;;2.80;99.90;;;;;;4845092;29;20413;-76
2021/04/06 08:35:47;;;;;;;2.73;2.40;;;3.00;99.90;;;;;;4849347;29;20411;-77
2021/04/06 08:38:22;;;;;;;6.40;2.35;;;3.30;99.90;;;;;;4845019;29;20407;-76
2021/04/06 08:41:03;;;;;;;2.33;2.13;;;3.50;99.90;;;;;;4850075;29;20412;-76
2021/04/06 08:43:34;;;;;;;3.20;2.35;;;3.70;99.90;;;;;;4847537;29;20414;-76
2021/04/06 08:46:12;;;;;;;3.45;2.10;;;3.90;99.90;;;;;;4818807;29;20423;-78
2021/04/06 08:48:46;;;;;;;2.20;2.00;;;4.10;99.90;;;;;;4845547;29;20453;-76
2021/04/06 08:51:26;;;;;;;2.63;2.42;;;4.20;99.90;;;;;;4829319;29;20422;-77
2021/04/06 08:53:56;;;;;;;4.18;2.10;;;4.10;99.90;;;;;;4834486;29;20415;-77
2021/04/06 08:56:30;;;;;;;2.38;2.17;;;3.90;99.90;;;;;;4816184;29;20423;-76
2021/04/06 08:59:14;;;;;;;3.35;2.28;;;3.90;99.90;;;;;;4817526;29;20414;-76
2021/04/06 09:01:40;;;;;;;3.05;2.20;;;4.10;99.90;;;;;;4843029;29;20409;-77
2021/04/06 09:04:18;;;;;;;2.28;2.00;;;4.20;99.90;;;;;;4846162;29;20398;-77
2021/04/06 09:06:43;;;;;;;2.25;2.00;;;4.20;99.90;;;;;;4811525;29;20483;-76
2021/04/06 09:09:10;;;;;;;2.58;1.83;;;4.30;99.90;;;;;;4807544;29;21115;-76
2021/04/06 09:11:37;;;;;;;4.80;2.27;;;4.20;99.90;;;;;;4837141;29;20438;-77
2021/04/06 09:14:03;;;;;;;3.85;2.40;;;4.10;99.90;;;;;;4835481;29;20816;-77
2021/04/06 09:16:29;;;;;;;2.03;1.80;;;4.10;99.90;;;;;;4818179;29;20505;-77
2021/04/06 09:18:58;;;;;;;1.93;1.80;;;4.10;99.90;;;;;;4842297;29;20469;-77
2021/04/06 09:21:24;;;;;;;1.80;1.70;;;4.10;99.90;;;;;;4818397;29;20427;-77
2021/04/06 09:23:54;;;;;;;4.90;2.00;;;4.10;99.90;;;;;;4822438;29;20439;-77
2021/04/06 09:26:20;;;;;;;2.88;2.17;;;4.20;99.90;;;;;;4837984;29;20645;-78
2021/04/06 09:28:46;;;;;;;2.30;2.10;;;4.50;99.90;;;;;;4820415;29;20412;-77
2021/04/06 09:31:12;;;;;;;3.72;2.40;;;4.70;99.90;;;;;;4816434;29;20461;-78
2021/04/06 09:33:38;;;;;;;1.60;1.50;;;4.70;99.90;;;;;;4824019;29;20483;-77
2021/04/06 09:36:04;;;;;;;3.45;1.80;;;4.80;99.90;;;;;;4831911;29;20428;-77
2021/04/06 09:38:30;;;;;;;1.90;1.70;;;4.80;99.90;;;;;;4832670;29;20406;-77
2021/04/06 09:40:56;;;;;;;2.20;1.80;;;4.90;99.90;;;;;;4824456;29;20971;-78
2021/04/06 09:43:21;;;;;;;3.40;1.85;;;4.90;99.90;;;;;;4842113;29;20422;-77
2021/04/06 09:45:48;;;;;;;1.60;1.50;;;5.00;99.90;;;;;;4836270;29;20564;-77
2021/04/06 09:48:15;;;;;;;1.60;1.50;;;4.80;99.90;;;;;;4835096;29;20431;-77
2021/04/06 09:50:55;;;;;;;1.60;1.48;;;4.80;99.90;;;;;;4831174;29;21044;-76
2021/04/06 09:53:20;;;;;;;1.38;1.27;;;5.00;99.90;;;;;;4837621;29;20503;-77
2021/04/06 09:55:47;;;;;;;1.30;1.20;;;5.20;99.90;;;;;;4812429;29;21128;-77
2021/04/06 09:58:13;;;;;;;1.83;1.30;;;5.40;99.90;;;;;;4835819;29;20416;-77
2021/04/06 10:00:39;;;;;;;1.90;1.35;;;5.70;99.90;;;;;;4814283;29;20793;-77
2021/04/06 10:03:09;;;;;;;1.48;1.38;;;5.90;99.90;;;;;;4823193;29;20401;-75
2021/04/06 10:05:35;;;;;;;1.58;1.48;;;6.00;99.90;;;;;;4810807;29;20402;-76
2021/04/06 10:08:01;;;;;;;1.83;1.25;;;5.90;99.90;;;;;;4832696;29;20462;-76
2021/04/06 10:10:29;;;;;;;1.55;1.35;;;5.80;99.90;;;;;;4844269;29;20836;-77
2021/04/06 10:12:55;;;;;;;1.48;1.38;;;6.10;99.90;;;;;;4833242;29;20404;-76
2021/04/06 10:15:22;;;;;;;1.33;1.23;;;6.40;99.90;;;;;;4816498;29;21103;-76
2021/04/06 10:17:48;;;;;;;2.27;1.30;;;6.30;99.90;;;;;;4833129;29;20453;-78
2021/04/06 10:20:19;;;;;;;1.53;1.13;;;5.90;99.90;;;;;;4839472;29;20483;-77
2021/04/06 10:22:49;;;;;;;1.27;1.17;;;5.80;99.90;;;;;;4856557;29;20408;-77
2021/04/06 10:25:17;;;;;;;1.40;1.30;;;5.80;99.90;;;;;;4849615;29;20491;-75
2021/04/06 10:27:51;;;;;;;2.47;1.30;;;5.70;99.90;;;;;;4820386;29;20956;-76
2021/04/06 10:30:26;;;;;;;1.42;1.33;;;5.70;99.90;;;;;;4813305;29;20434;-75
2021/04/06 10:33:01;;;;;;;1.50;1.40;;;5.70;99.90;;;;;;4850316;29;20404;-77
2021/04/06 10:35:28;;;;;;;1.67;1.58;;;6.00;99.90;;;;;;4860237;29;20469;-76
2021/04/06 10:38:01;;;;;;;2.58;1.70;;;6.40;99.90;;;;;;4857773;29;20419;-76
2021/04/06 10:40:33;;;;;;;1.83;1.48;;;6.60;99.90;;;;;;4833805;29;20430;-76
2021/04/06 10:43:13;;;;;;;1.90;1.70;;;6.50;99.90;;;;;;4841664;29;20392;-76
2021/04/06 10:45:41;;;;;;;1.70;1.60;;;6.30;99.90;;;;;;4846992;29;20398;-78
2021/04/06 10:48:10;;;;;;;1.67;1.58;;;6.20;99.90;;;;;;4858486;29;20427;-78
2021/04/06 10:50:37;;;;;;;1.88;1.50;;;6.40;99.90;;;;;;4873120;29;20445;-78
2021/04/06 10:53:30;;;;;;;2.60;1.93;;;6.60;99.90;;;;;;4821941;29;20419;-78
2021/04/06 10:56:03;;;;;;;1.40;1.30;;;7.10;99.90;;;;;;4839222;29;20431;-77
2021/04/06 10:58:33;;;;;;;2.03;1.60;;;7.60;99.90;;;;;;4837807;29;20415;-79
2021/04/06 11:01:13;;;;;;;2.10;1.45;;;7.90;99.90;;;;;;4831110;29;20440;-78
2021/04/06 11:03:45;;;;;;;2.03;1.40;;;7.60;99.90;;;;;;4834436;29;20420;-79
2021/04/06 11:06:24;;;;;;;2.47;1.77;;;7.40;99.90;;;;;;4837838;29;20411;-78
2021/04/06 11:08:51;;;;;;;1.50;1.40;;;7.40;99.90;;;;;;4821562;29;20531;-78
2021/04/06 11:11:18;;;;;;;2.13;1.40;;;7.70;99.90;;;;;;4813734;29;20438;-77
2021/04/06 11:13:43;;;;;;;1.58;1.48;;;7.80;99.90;;;;;;4837015;29;20567;-78
2021/04/06 11:16:10;;;;;;;1.50;1.40;;;7.50;99.90;;;;;;4852418;29;20514;-79
2021/04/06 11:18:36;;;;;;;2.03;1.63;;;7.40;99.90;;;;;;4834410;29;20405;-78
2021/04/06 11:21:03;;;;;;;2.33;1.80;;;7.20;99.90;;;;;;4853780;29;20414;-78
2021/04/06 11:23:28;;;;;;;1.80;1.67;;;7.40;99.90;;;;;;4820845;29;20422;-78
2021/04/06 11:25:54;;;;;;;1.63;1.52;;;8.10;99.90;;;;;;4836134;29;20402;-78
2021/04/06 11:28:20;;;;;;;1.70;1.60;;;8.30;99.90;;;;;;4843958;29;20416;-78
2021/04/06 11:30:45;;;;;;;1.63;1.50;;;7.90;99.90;;;;;;4849565;29;20437;-78
2021/04/06 11:33:11;;;;;;;1.70;1.60;;;7.70;99.90;;;;;;4818394;29;20497;-79
2021/04/06 11:35:40;;;;;;;3.00;2.15;;;7.70;99.90;;;;;;4817973;29;20417;-79
2021/04/06 11:38:08;;;;;;;5.43;1.80;;;7.90;99.90;;;;;;4822004;29;20415;-78
2021/04/06 11:40:34;;;;;;;2.27;1.50;;;8.30;99.90;;;;;;4850688;29;20417;-78
2021/04/06 11:43:00;;;;;;;1.60;1.50;;;8.30;99.90;;;;;;4838114;29;20408;-78
2021/04/06 11:45:25;;;;;;;1.50;1.40;;;7.70;99.90;;;;;;4851383;29;20491;-78
2021/04/06 11:47:52;;;;;;;1.97;1.63;;;7.60;99.90;;;;;;4833394;29;20476;-77
2021/04/06 11:50:18;;;;;;;1.70;1.60;;;7.90;99.90;;;;;;4835644;29;20430;-78
2021/04/06 11:52:43;;;;;;;2.67;1.97;;;8.30;99.90;;;;;;4819016;29;20400;-78
2021/04/06 11:55:09;;;;;;;2.93;2.00;;;8.20;99.90;;;;;;4833633;29;21095;-78
2021/04/06 11:57:35;;;;;;;2.78;1.80;;;8.20;99.90;;;;;;4849970;29;20404;-78
2021/04/06 12:00:01;;;;;;;1.70;1.60;;;7.80;99.90;;;;;;4851754;29;20790;-77
2021/04/06 12:02:27;;;;;;;2.23;2.03;;;7.60;99.90;;;;;;4837691;29;20457;-79
2021/04/06 12:04:52;;;;;;;2.85;2.30;;;7.80;99.90;;;;;;4820926;29;20411;-78
2021/04/06 12:07:18;;;;;;;2.53;2.22;;;8.00;99.90;;;;;;4850085;29;20406;-78
2021/04/06 12:09:44;;;;;;;3.57;2.70;;;7.80;99.90;;;;;;4852115;29;20423;-78
2021/04/06 12:12:10;;;;;;;3.05;2.10;;;7.70;99.90;;;;;;4840508;29;20426;-78
2021/04/06 12:14:35;;;;;;;2.17;1.98;;;7.80;99.90;;;;;;4839916;29;20925;-79
2021/04/06 12:17:01;;;;;;;1.80;1.50;;;7.50;99.90;;;;;;4830913;29;20422;-78
2021/04/06 12:19:27;;;;;;;2.60;1.70;;;7.60;99.90;;;;;;4847059;29;20408;-78
2021/04/06 12:21:52;;;;;;;1.63;1.52;;;8.10;99.90;;;;;;4842015;29;20493;-78
2021/04/06 12:24:18;;;;;;;2.00;1.80;;;8.40;99.90;;;;;;4816505;29;20408;-77
2021/04/06 12:26:44;;;;;;;2.20;2.00;;;8.50;99.90;;;;;;4835336;29;20422;-79
2021/04/06 12:29:09;;;;;;;1.75;1.65;;;8.40;99.90;;;;;;4833597;29;20478;-79
2021/04/06 12:31:35;;;;;;;2.27;1.83;;;8.40;99.90;;;;;;4820626;29;20449;-79
2021/04/06 12:34:01;;;;;;;1.90;1.80;;;7.50;99.90;;;;;;4836114;29;20463;-78
2021/04/06 12:36:27;;;;;;;1.92;1.58;;;7.40;99.90;;;;;;4836049;29;20510;-78
2021/04/06 12:38:53;;;;;;;1.52;1.40;;;7.50;99.90;;;;;;4845862;29;20424;-78
2021/04/06 12:41:19;;;;;;;1.50;1.40;;;7.70;99.90;;;;;;4839550;29;20433;-77
2021/04/06 12:43:44;;;;;;;3.13;1.60;;;8.00;99.90;;;;;;4846939;29;20540;-77
2021/04/06 12:46:10;;;;;;;1.73;1.63;;;7.60;99.90;;;;;;4819153;29;20414;-78
2021/04/06 12:48:36;;;;;;;2.10;1.90;;;7.30;99.90;;;;;;4836563;29;20411;-78
2021/04/06 12:51:01;;;;;;;2.23;1.57;;;7.00;99.90;;;;;;4807689;29;20420;-77
2021/04/06 12:53:27;;;;;;;2.85;1.42;;;7.50;99.90;;;;;;4836755;29;20417;-77
2021/04/06 12:55:55;;;;;;;2.77;1.50;;;7.80;99.90;;;;;;4821458;29;21137;-78
2021/04/06 12:58:21;;;;;;;3.30;1.88;;;7.50;99.90;;;;;;4814007;29;20495;-78
2021/04/06 13:00:47;;;;;;;2.65;1.48;;;7.10;99.90;;;;;;4832011;29;20422;-77
2021/04/06 13:03:14;;;;;;;2.00;1.80;;;7.30;99.90;;;;;;4815636;29;20428;-77
2021/04/06 13:05:39;;;;;;;1.90;1.40;;;7.70;99.90;;;;;;4833521;29;20477;-78